Dennis J. Pasentine — WDF2813 — position and weather

sailwx.info

Track history (hours):
 
Tides and Currents Weather Stations Pressure Air Temp Water Temp Dewpoint Dewpoint Depression Visibility Wind Speed Wind Dir Waves Ship Positions

Dennis J. Pasentine

Owner: Florida Marine Transporters, Inc., Mandeville, LA. More information available from US FCC via Universal Licensing System and Coast Guard Vessel Documentation Center.

Last reported at 2017-Nov-11 15:54 UTC. Time now 2017-Nov-23 10:58 UTC.
Position N 32°40' W 091°07'.
Warning: this ship's position is 11 days out of date.

Length 42 m; draft 3.2 m.

Type: Ship (hazmat cat A). MMSI: 367432180.

Date/timePositionNaut miles runAvg speedWind from/ knotsBaromVisibWave heightAir tempDewpointWater temp
2017-Nov-11 15:54N 32°40' W 091°07'2 0.9
2017-Nov-11 14:07N 32°40' W 091°08'1 4.4
2017-Nov-11 13:53N 32°39' W 091°09'1 2.2
2017-Nov-11 13:23N 32°38' W 091°09'2 4.8
2017-Nov-11 13:01N 32°36' W 091°08'2 4.8
2017-Nov-11 12:30N 32°34' W 091°07'2 4.0
2017-Nov-11 11:53N 32°32' W 091°06'2 4.8
2017-Nov-11 11:30N 32°30' W 091°07'1 1.2
2017-Nov-11 11:00N 32°30' W 091°07'2 4.4
2017-Nov-11 10:30N 32°28' W 091°06'2 5.0
2017-Nov-11 10:00N 32°26' W 091°03'2 4.9
2017-Nov-11 09:30N 32°26' W 091°01'2 4.0
2017-Nov-11 09:00N 32°24' W 090°59'2 4.2
2017-Nov-11 08:30N 32°22' W 091°00'0 0.6
2017-Nov-11 08:00N 32°22' W 091°00'2 4.2
2017-Nov-11 07:30N 32°21' W 090°58'0 0.0
2017-Nov-11 07:00N 32°21' W 090°58'0 0.0
2017-Nov-11 06:30N 32°21' W 090°58'0 0.0
2017-Nov-11 06:00N 32°21' W 090°58'0 0.0
2017-Nov-11 05:30N 32°21' W 090°58'0 0.7
2017-Nov-11 05:00N 32°21' W 090°57'2 4.7
2017-Nov-11 04:30N 32°21' W 090°55'2 4.2
2017-Nov-11 04:00N 32°18' W 090°55'2 4.0
2017-Nov-11 03:30N 32°17' W 090°56'2 4.9
2017-Nov-11 03:00N 32°15' W 090°58'2 4.6
2017-Nov-11 02:30N 32°13' W 090°59'3 5.0
2017-Nov-11 01:59N 32°11' W 090°60'2 5.0
2017-Nov-11 01:30N 32°08' W 091°00'2 4.5
2017-Nov-11 01:00N 32°07' W 091°03'2 4.7
2017-Nov-11 00:29N 32°08' W 091°05'2 3.8
2017-Nov-11 00:00N 32°06' W 091°06'4 5.0
2017-Nov-10 23:15N 32°03' W 091°03'1 5.0
2017-Nov-10 23:00N 32°02' W 091°04'  
Track history (hours):
 
Tides and Currents Weather Stations Pressure Air Temp Water Temp Dewpoint Dewpoint Depression Visibility Wind Speed Wind Dir Waves Ship Positions

Dennis J. Pasentine

Owner: Florida Marine Transporters, Inc., Mandeville, LA. More information available from US FCC via Universal Licensing System and Coast Guard Vessel Documentation Center.

Last reported at 2017-Nov-11 15:54 UTC. Time now 2017-Nov-23 10:58 UTC.
Position N 32°40' W 091°07'.
Warning: this ship's position is 11 days out of date.

Length 42 m; draft 3.2 m.

Type: Ship (hazmat cat A). MMSI: 367432180.

Date/timePositionNaut miles runAvg speedWind from/ knotsBaromVisibWave heightAir tempDewpointWater temp
2017-Nov-11 15:54N 32°40' W 091°07'2 0.9
2017-Nov-11 14:07N 32°40' W 091°08'1 4.4
2017-Nov-11 13:53N 32°39' W 091°09'1 2.2
2017-Nov-11 13:23N 32°38' W 091°09'2 4.8
2017-Nov-11 13:01N 32°36' W 091°08'2 4.8
2017-Nov-11 12:30N 32°34' W 091°07'2 4.0
2017-Nov-11 11:53N 32°32' W 091°06'2 4.8
2017-Nov-11 11:30N 32°30' W 091°07'1 1.2
2017-Nov-11 11:00N 32°30' W 091°07'2 4.4
2017-Nov-11 10:30N 32°28' W 091°06'2 5.0
2017-Nov-11 10:00N 32°26' W 091°03'2 4.9
2017-Nov-11 09:30N 32°26' W 091°01'2 4.0
2017-Nov-11 09:00N 32°24' W 090°59'2 4.2
2017-Nov-11 08:30N 32°22' W 091°00'0 0.6
2017-Nov-11 08:00N 32°22' W 091°00'2 4.2
2017-Nov-11 07:30N 32°21' W 090°58'0 0.0
2017-Nov-11 07:00N 32°21' W 090°58'0 0.0
2017-Nov-11 06:30N 32°21' W 090°58'0 0.0
2017-Nov-11 06:00N 32°21' W 090°58'0 0.0
2017-Nov-11 05:30N 32°21' W 090°58'0 0.7
2017-Nov-11 05:00N 32°21' W 090°57'2 4.7
2017-Nov-11 04:30N 32°21' W 090°55'2 4.2
2017-Nov-11 04:00N 32°18' W 090°55'2 4.0
2017-Nov-11 03:30N 32°17' W 090°56'2 4.9
2017-Nov-11 03:00N 32°15' W 090°58'2 4.6
2017-Nov-11 02:30N 32°13' W 090°59'3 5.0
2017-Nov-11 01:59N 32°11' W 090°60'2 5.0
2017-Nov-11 01:30N 32°08' W 091°00'2 4.5
2017-Nov-11 01:00N 32°07' W 091°03'2 4.7
2017-Nov-11 00:29N 32°08' W 091°05'2 3.8
2017-Nov-11 00:00N 32°06' W 091°06'4 5.0
2017-Nov-10 23:15N 32°03' W 091°03'1 5.0
2017-Nov-10 23:00N 32°02' W 091°04'  

Dump ship's entire track history